LICBLMML

Guest
Details From LICB - Magliocco
To LMML - La Valette Luqa
Flight Number -
Tags generated
Created
Modified
Stats Distance 73 nm / 135 km
Max Altitude 8,500 ft / 2,591 m
Waypoints 3
Social Downloads 6
Likes 0
Share VATSIM

Download

Looking for another format? Having issues loading an existing format? Contact us
Advertisement - Login to hide

Notes

Basic altitude profile: - Ascent Rate: 2500ft/min - Ascent Speed: 250kts - Cruise Altitude: 35000ft - Cruise Speed: 420kts - Descent Rate: 1500ft/min - Descent Speed: 250kts Options: - Use NATs: yes - Use PACOTS: yes - Use low airways: yes - Use high airways: yes

Route

LICB DIRKA LMML

ID Type Via Altitude Latitude Longitude Leg Dist Tot Dist Heading (true) Name
O LICB APT - 0 ft / 0 m 36.99403˚ 14.60627˚ - 0 nm - Magliocco
DIRKA FIX - 8,500 ft / 2,591 m 36.50000˚ 14.31000˚ 32 nm 32 nm 206° / 206° -
O LMML APT - 0 ft / 0 m 35.84948˚ 14.48184˚ 39 nm 72 nm 168° / 168° La Valette Luqa

Altitude Profile

Advertisement - Login to hide

LICB

Details ICAO LICB
Name Magliocco
Region Italy
Timezone Europe/Rome (UTC+1.0)
Stats Elevation 757 ft / 231 m (AMSL)
Location 36.994031° 14.606274°
Runways 1
Magnetic Variation 3.115° E

METAR

LICB 180850Z VRB01KT CAVOK 09/02 Q1021

Decode

TAF

Not found

Departure Runways

ID Width Length Bearing (true) Bearing (mag) Surface Threshold Offset Overrun Length
05 147 ft / 45 m 8,334 ft / 2,540 m 49.99° 46.88° Asphalt 196 ft / 60 m 452 ft / 138 m
23 147 ft / 45 m 8,334 ft / 2,540 m 230.01° 226.90° Asphalt 0 ft / 0 m 0 ft / 0 m

LMML

Details ICAO LMML (MLA)
Name La Valette Luqa
Region Malta
Timezone Europe/Malta (UTC+1.0)
Stats Elevation 300 ft / 91 m (AMSL)
Location 35.849477° 14.481836°
Runways 2
Magnetic Variation 3.021° E

METAR

LMML 180915Z 34014KT 9999 SCT035 13/04 Q1022 NOSIG

Decode

TAF

Not found

Destination Runways

ID Width Length Bearing (true) Bearing (mag) Surface Threshold Offset Overrun Length
14 197 ft / 60 m 11,635 ft / 3,546 m 134.83° 131.81° Asphalt 0 ft / 0 m 420 ft / 128 m
24 148 ft / 45 m 7,789 ft / 2,374 m 234.37° 231.35° Asphalt 410 ft / 125 m 0 ft / 0 m
32 197 ft / 60 m 11,635 ft / 3,546 m 314.85° 311.83° Asphalt 817 ft / 249 m 0 ft / 0 m
6 148 ft / 45 m 7,789 ft / 2,374 m 54.35° 51.33° Asphalt 400 ft / 122 m 0 ft / 0 m

Approach Navaids

Runway Type Ident Frequency Range Bearing (true) Bearing (mag) Slope Elevation
14 Localiser LQ 109.70 MHz 18 nm / 33 km 134.95° 131.93° - 230 ft / 70 m (AMSL)
14 Glidescope LQ 109.70 MHz 10 nm / 19 km 134.84° 131.82° 2.85° 256 ft / 78 m (AMSL)
32 Localiser LM 110.50 MHz 18 nm / 33 km 314.79° 311.77° - 256 ft / 78 m (AMSL)
32 Glidescope LM 110.50 MHz 10 nm / 19 km 314.84° 311.82° 2.85° 230 ft / 70 m (AMSL)